createdAt,value
2022-08-09T00:00:44.651Z,18.40
2022-08-09T00:04:10.002Z,18.30
2022-08-09T00:06:45.417Z,18.20
2022-08-09T00:09:34.247Z,18.20
2022-08-09T00:12:34.698Z,18.20
2022-08-09T00:15:26.463Z,18.20
2022-08-09T00:18:34.882Z,18.10
2022-08-09T00:21:24.581Z,18.10
2022-08-09T00:24:12.559Z,18.10
2022-08-09T00:27:03.890Z,18.10
2022-08-09T00:30:24.602Z,18.00
2022-08-09T00:33:01.190Z,18.00
2022-08-09T00:35:49.651Z,17.90
2022-08-09T00:38:39.287Z,17.80
2022-08-09T00:44:19.802Z,17.70
2022-08-09T00:44:35.403Z,17.70
2022-08-09T00:47:26.729Z,17.70
2022-08-09T00:50:21.061Z,17.60
2022-08-09T00:53:12.347Z,17.50
2022-08-09T00:56:05.036Z,17.50
2022-08-09T00:58:54.386Z,17.50
2022-08-09T01:01:44.624Z,17.50
2022-08-09T01:04:41.887Z,17.50
2022-08-09T01:07:59.902Z,17.40
2022-08-09T01:10:57.899Z,17.40
2022-08-09T01:13:58.874Z,17.40
2022-08-09T01:16:49.731Z,17.30
2022-08-09T01:19:57.166Z,17.30
2022-08-09T01:23:12.333Z,17.30
2022-08-09T01:26:52.964Z,17.20
2022-08-09T01:29:55.143Z,17.20
2022-08-09T01:32:47.152Z,17.10
2022-08-09T01:35:42.406Z,17.00
2022-08-09T01:38:35.827Z,17.10
2022-08-09T01:41:29.965Z,17.00
2022-08-09T01:44:21.585Z,17.00
2022-08-09T01:47:11.773Z,16.90
2022-08-09T01:50:06.416Z,16.90
2022-08-09T01:52:58.904Z,16.80
2022-08-09T01:55:49.481Z,16.80
2022-08-09T01:58:38.818Z,16.80
2022-08-09T02:01:57.749Z,16.80
2022-08-09T02:04:45.650Z,16.70
2022-08-09T02:08:35.534Z,16.70
2022-08-09T02:10:51.067Z,16.70
2022-08-09T02:13:40.726Z,16.70
2022-08-09T02:16:59.014Z,16.70
2022-08-09T02:19:43.051Z,16.60
2022-08-09T02:22:36.132Z,16.60
2022-08-09T02:25:28.412Z,16.60
2022-08-09T02:28:20.070Z,16.50
2022-08-09T02:31:12.975Z,16.50
2022-08-09T02:34:13.692Z,16.50
2022-08-09T02:37:17.787Z,16.40
2022-08-09T02:40:10.501Z,16.40
2022-08-09T02:43:02.133Z,16.40
2022-08-09T02:45:53.012Z,16.30
2022-08-09T02:48:46.154Z,16.30
2022-08-09T02:51:40.404Z,16.40
2022-08-09T02:54:29.460Z,16.30
2022-08-09T02:57:23.470Z,16.20
2022-08-09T03:00:25.012Z,16.20
2022-08-09T03:03:21.341Z,16.20
2022-08-09T03:06:14.622Z,16.20
2022-08-09T03:09:05.475Z,16.20
2022-08-09T03:12:05.449Z,16.20
2022-08-09T03:14:56.902Z,16.20
2022-08-09T03:18:19.077Z,16.10
2022-08-09T03:21:25.880Z,16.20
2022-08-09T03:24:17.972Z,16.10
2022-08-09T03:27:25.579Z,16.10
2022-08-09T03:30:29.323Z,16.10
2022-08-09T03:33:19.885Z,16.00
2022-08-09T03:36:12.903Z,16.00
2022-08-09T03:39:05.344Z,16.00
2022-08-09T03:42:06.174Z,16.00
2022-08-09T03:44:55.285Z,16.00
2022-08-09T03:47:53.760Z,15.90
2022-08-09T03:50:44.573Z,15.90
2022-08-09T03:53:36.915Z,15.90
2022-08-09T03:56:26.562Z,15.90
2022-08-09T03:59:17.041Z,15.90
2022-08-09T04:02:09.840Z,15.90
2022-08-09T04:05:05.844Z,15.90
2022-08-09T04:07:59.549Z,15.90
2022-08-09T04:11:00.509Z,15.80
2022-08-09T04:14:53.892Z,15.80
2022-08-09T04:17:07.248Z,15.80
2022-08-09T04:20:02.698Z,15.80
2022-08-09T04:22:53.467Z,15.70
2022-08-09T04:25:44.845Z,15.80
2022-08-09T04:29:38.173Z,15.70
2022-08-09T04:32:33.708Z,15.80
2022-08-09T04:35:24.849Z,15.80
2022-08-09T04:38:17.133Z,15.90
2022-08-09T04:41:06.513Z,15.90
2022-08-09T04:44:06.467Z,16.00
2022-08-09T04:47:05.643Z,16.00
2022-08-09T04:49:56.184Z,16.00
2022-08-09T04:52:44.070Z,16.00
2022-08-09T04:55:38.949Z,16.00
2022-08-09T04:58:33.886Z,16.10
2022-08-09T05:01:21.855Z,16.10
2022-08-09T05:04:10.546Z,16.10
2022-08-09T05:07:03.669Z,16.10
2022-08-09T05:09:53.307Z,16.10
2022-08-09T05:12:41.249Z,16.20
2022-08-09T05:15:38.616Z,16.20
2022-08-09T05:18:42.380Z,16.20
2022-08-09T05:21:47.430Z,16.20
2022-08-09T05:24:45.045Z,16.20
2022-08-09T05:27:45.447Z,16.20
2022-08-09T05:30:36.504Z,16.20
2022-08-09T05:33:26.342Z,16.20
2022-08-09T05:36:21.099Z,16.20
2022-08-09T05:39:14.236Z,16.20
2022-08-09T05:42:21.777Z,16.20
2022-08-09T05:45:14.292Z,16.20
2022-08-09T05:48:02.596Z,16.20
2022-08-09T05:50:57.089Z,16.30
2022-08-09T05:53:58.260Z,16.40
2022-08-09T05:56:55.173Z,16.40
2022-08-09T05:59:45.870Z,16.40
2022-08-09T06:02:34.003Z,16.50
2022-08-09T06:05:30.625Z,16.50
2022-08-09T06:08:31.240Z,16.60
2022-08-09T06:11:19.213Z,16.60
2022-08-09T06:14:12.544Z,16.70
2022-08-09T06:17:09.502Z,16.70
2022-08-09T06:19:58.152Z,16.80
2022-08-09T06:22:45.981Z,16.90
2022-08-09T06:25:34.508Z,16.90
2022-08-09T06:28:22.590Z,17.00
2022-08-09T06:31:15.377Z,17.00
2022-08-09T06:34:05.441Z,17.10
2022-08-09T06:36:59.233Z,17.20
2022-08-09T06:39:58.077Z,17.20
2022-08-09T06:42:48.596Z,17.30
2022-08-09T06:46:06.399Z,17.30
2022-08-09T06:48:45.017Z,17.40
2022-08-09T06:51:39.823Z,17.50
2022-08-09T06:54:28.074Z,17.60
2022-08-09T06:57:16.190Z,17.70
2022-08-09T07:00:51.561Z,17.70
2022-08-09T07:03:13.221Z,17.80
2022-08-09T07:06:05.147Z,17.90
2022-08-09T07:08:54.628Z,18.00
2022-08-09T07:11:51.978Z,18.10
2022-08-09T07:14:41.612Z,18.20
2022-08-09T07:17:29.400Z,18.30
2022-08-09T07:20:27.873Z,18.30
2022-08-09T07:23:18.490Z,18.40
2022-08-09T07:26:09.154Z,18.50
2022-08-09T07:29:09.328Z,18.60
2022-08-09T07:32:01.259Z,18.70
2022-08-09T07:34:49.173Z,18.90
2022-08-09T07:37:44.660Z,19.00
2022-08-09T07:40:46.400Z,19.10
2022-08-09T07:43:56.034Z,19.20
2022-08-09T07:46:44.724Z,19.30
2022-08-09T07:49:35.464Z,19.40
2022-08-09T07:52:43.256Z,19.40
2022-08-09T07:55:41.659Z,19.50
2022-08-09T07:58:44.829Z,19.70
2022-08-09T08:01:35.337Z,19.80
2022-08-09T08:04:32.282Z,19.90
2022-08-09T08:08:43.622Z,20.00
2022-08-09T08:10:28.822Z,20.10
2022-08-09T08:13:22.309Z,20.30
2022-08-09T08:16:29.681Z,20.40
2022-08-09T08:19:19.011Z,20.50
2022-08-09T08:22:09.339Z,20.70
2022-08-09T08:24:57.822Z,20.70
2022-08-09T08:27:45.620Z,20.80
2022-08-09T08:30:39.051Z,20.90
2022-08-09T08:33:52.268Z,20.90
2022-08-09T08:36:40.143Z,21.00
2022-08-09T08:39:28.048Z,21.20
2022-08-09T08:42:16.713Z,21.30
2022-08-09T08:45:13.606Z,21.50
2022-08-09T08:48:02.007Z,21.60
2022-08-09T08:50:54.732Z,21.80
2022-08-09T08:54:03.408Z,22.00
2022-08-09T08:56:51.483Z,22.00
2022-08-09T08:59:46.767Z,22.10
2022-08-09T09:02:36.174Z,22.20
2022-08-09T09:05:26.258Z,22.30
2022-08-09T09:08:40.691Z,22.40
2022-08-09T09:11:30.961Z,22.50
2022-08-09T09:14:26.098Z,22.60
2022-08-09T09:17:16.324Z,22.70
2022-08-09T09:20:08.680Z,22.90
2022-08-09T09:23:01.887Z,22.90
2022-08-09T09:26:00.985Z,23.00
2022-08-09T09:29:03.876Z,23.20
2022-08-09T09:32:06.669Z,23.40
2022-08-09T09:35:07.691Z,23.60
2022-08-09T09:37:57.397Z,23.70
2022-08-09T09:40:46.592Z,23.60
2022-08-09T09:43:41.643Z,23.70
2022-08-09T09:46:45.935Z,23.80
2022-08-09T09:50:07.421Z,23.90
2022-08-09T09:52:52.732Z,23.90
2022-08-09T09:55:57.711Z,24.10
2022-08-09T09:58:54.739Z,24.20
2022-08-09T10:01:43.366Z,24.30
2022-08-09T10:04:31.515Z,24.30
2022-08-09T10:07:25.144Z,24.40
2022-08-09T10:10:13.519Z,24.60
2022-08-09T10:13:06.898Z,24.60
2022-08-09T10:16:54.553Z,24.70
2022-08-09T10:19:10.157Z,24.80
2022-08-09T10:21:58.170Z,24.80
2022-08-09T10:24:50.006Z,25.00
2022-08-09T10:27:44.880Z,25.10
2022-08-09T10:32:13.540Z,25.10
2022-08-09T10:34:08.904Z,25.20
2022-08-09T10:37:02.655Z,25.40
2022-08-09T10:39:51.338Z,25.50
2022-08-09T10:42:39.187Z,25.70
2022-08-09T10:45:31.792Z,25.80
2022-08-09T10:48:30.501Z,26.00
2022-08-09T10:51:41.180Z,26.20
2022-08-09T10:54:29.265Z,26.30
2022-08-09T10:57:17.087Z,26.40
2022-08-09T11:00:34.433Z,26.40
2022-08-09T11:03:50.727Z,26.60
2022-08-09T11:06:37.280Z,26.70
2022-08-09T11:09:50.293Z,26.80
2022-08-09T11:12:40.301Z,27.00
2022-08-09T11:15:33.786Z,27.10
2022-08-09T11:18:48.349Z,27.30
2022-08-09T11:22:18.597Z,27.50
2022-08-09T11:25:10.293Z,27.50
2022-08-09T11:28:08.171Z,27.50
2022-08-09T11:31:43.414Z,27.50
2022-08-09T11:34:44.305Z,27.40
2022-08-09T11:37:41.459Z,27.40
2022-08-09T11:40:32.856Z,27.40
2022-08-09T11:43:40.826Z,27.50
2022-08-09T11:46:53.011Z,27.70
2022-08-09T11:50:54.036Z,27.90
2022-08-09T11:53:58.623Z,28.10
2022-08-09T11:56:41.690Z,28.40
2022-08-09T11:59:35.411Z,28.60
2022-08-09T12:02:37.456Z,28.80
2022-08-09T12:05:42.131Z,28.70
2022-08-09T12:08:36.332Z,28.70
2022-08-09T12:11:25.714Z,28.60
2022-08-09T12:14:36.446Z,28.70
2022-08-09T12:17:34.508Z,29.00
2022-08-09T12:20:32.635Z,29.20
2022-08-09T12:23:24.621Z,29.30
2022-08-09T12:26:39.259Z,29.30
2022-08-09T12:29:33.055Z,29.50
2022-08-09T12:32:32.831Z,29.50
2022-08-09T12:35:22.949Z,29.20
2022-08-09T12:38:37.897Z,29.10
2022-08-09T12:41:38.321Z,28.80
2022-08-09T12:44:27.769Z,28.90
2022-08-09T12:47:25.947Z,28.90
2022-08-09T12:50:23.524Z,29.10
2022-08-09T12:53:35.105Z,29.30
2022-08-09T12:56:44.329Z,29.70
2022-08-09T12:59:57.375Z,29.60
2022-08-09T13:02:54.175Z,29.40
2022-08-09T13:05:52.477Z,29.60
2022-08-09T13:09:01.071Z,29.70
2022-08-09T13:11:51.098Z,29.70
2022-08-09T13:14:54.075Z,29.80
2022-08-09T13:17:58.721Z,30.00
2022-08-09T13:22:33.955Z,30.10
2022-08-09T13:24:16.007Z,30.20
2022-08-09T13:27:29.135Z,30.00
2022-08-09T13:32:12.359Z,29.90
2022-08-09T13:33:51.713Z,30.10
2022-08-09T13:36:42.167Z,30.30
2022-08-09T13:41:20.856Z,30.50
2022-08-09T13:42:39.209Z,30.70
2022-08-09T13:45:32.421Z,30.90
2022-08-09T13:48:37.580Z,30.90
2022-08-09T13:51:30.224Z,30.80
2022-08-09T13:54:18.299Z,30.60
2022-08-09T13:57:08.090Z,30.70
2022-08-09T14:00:03.118Z,30.80
2022-08-09T14:03:02.936Z,31.00
2022-08-09T14:06:02.971Z,31.00
2022-08-09T14:08:51.331Z,30.80
2022-08-09T14:11:47.294Z,30.90
2022-08-09T14:14:36.151Z,31.10
2022-08-09T14:17:24.261Z,31.20
2022-08-09T14:20:24.769Z,31.20
2022-08-09T14:23:20.425Z,31.20
2022-08-09T14:26:11.061Z,31.40
2022-08-09T14:29:00.608Z,31.70
2022-08-09T14:31:52.063Z,32.00
2022-08-09T14:34:41.939Z,32.20
2022-08-09T14:37:41.341Z,32.20
2022-08-09T14:41:04.273Z,31.90
2022-08-09T14:43:53.344Z,31.40
2022-08-09T14:47:03.268Z,31.00
2022-08-09T14:50:01.358Z,31.20
2022-08-09T14:52:51.670Z,31.50
2022-08-09T14:55:42.428Z,31.80
2022-08-09T14:58:37.835Z,32.00
2022-08-09T15:01:31.995Z,32.00
2022-08-09T15:04:20.584Z,32.10
2022-08-09T15:07:11.640Z,32.10
2022-08-09T15:10:07.569Z,32.20
2022-08-09T15:13:01.490Z,32.30
2022-08-09T15:15:51.892Z,32.50
2022-08-09T15:18:39.944Z,32.60
2022-08-09T15:22:01.229Z,32.70
2022-08-09T15:24:36.942Z,32.40
2022-08-09T15:27:27.465Z,32.20
2022-08-09T15:30:56.813Z,32.30
2022-08-09T15:34:04.288Z,32.50
2022-08-09T15:36:31.633Z,32.40
2022-08-09T15:39:20.511Z,32.30
2022-08-09T15:42:08.499Z,32.20
2022-08-09T15:45:00.149Z,32.30
2022-08-09T15:48:02.505Z,32.50
2022-08-09T15:50:55.718Z,32.60
2022-08-09T15:54:07.411Z,32.80
2022-08-09T15:56:51.459Z,32.90
2022-08-09T15:59:40.329Z,32.80
2022-08-09T16:02:31.426Z,32.70
2022-08-09T16:05:20.915Z,32.70
2022-08-09T16:08:09.995Z,32.90
2022-08-09T16:11:17.381Z,33.00
2022-08-09T16:14:07.967Z,33.00
2022-08-09T16:16:57.380Z,32.90
2022-08-09T16:19:49.283Z,32.70
2022-08-09T16:22:52.358Z,32.60
2022-08-09T16:25:40.797Z,32.70
2022-08-09T16:28:28.855Z,32.70
2022-08-09T16:31:16.799Z,32.70
2022-08-09T16:34:05.160Z,32.70
2022-08-09T16:36:57.722Z,32.80
2022-08-09T16:39:54.834Z,32.80
2022-08-09T16:42:53.325Z,32.90
2022-08-09T16:45:43.749Z,32.90
2022-08-09T16:48:41.446Z,32.80
2022-08-09T16:51:31.325Z,32.80
2022-08-09T16:54:25.635Z,32.70
2022-08-09T16:57:15.915Z,32.80
2022-08-09T17:00:04.608Z,32.70
2022-08-09T17:02:52.817Z,32.50
2022-08-09T17:06:07.732Z,32.50
2022-08-09T17:09:01.485Z,32.60
2022-08-09T17:11:54.627Z,32.70
2022-08-09T17:14:48.068Z,32.70
2022-08-09T17:17:50.313Z,32.70
2022-08-09T17:20:49.089Z,32.60
2022-08-09T17:24:27.223Z,32.50
2022-08-09T17:26:53.545Z,32.30
2022-08-09T17:29:45.586Z,32.30
2022-08-09T17:32:38.285Z,32.30
2022-08-09T17:35:27.164Z,32.20
2022-08-09T17:38:32.076Z,32.20
2022-08-09T17:41:22.308Z,32.10
2022-08-09T17:44:38.911Z,31.90
2022-08-09T17:47:49.297Z,31.80
2022-08-09T17:50:37.904Z,31.70
2022-08-09T17:53:25.771Z,31.60
2022-08-09T17:56:13.615Z,31.50
2022-08-09T17:59:11.554Z,31.40
2022-08-09T18:02:11.062Z,31.20
2022-08-09T18:05:01.808Z,31.10
2022-08-09T18:07:49.620Z,30.90
2022-08-09T18:10:38.557Z,30.80
2022-08-09T18:13:39.208Z,30.60
2022-08-09T18:16:34.986Z,30.40
2022-08-09T18:20:54.198Z,30.20
2022-08-09T18:22:51.366Z,30.00
2022-08-09T18:25:50.181Z,29.80
2022-08-09T18:30:42.604Z,29.60
2022-08-09T18:31:55.970Z,29.20
2022-08-09T18:34:44.395Z,28.80
2022-08-09T18:37:48.582Z,28.50
2022-08-09T18:40:44.990Z,28.30
2022-08-09T18:43:34.991Z,28.00
2022-08-09T18:46:47.038Z,27.70
2022-08-09T18:49:32.076Z,27.50
2022-08-09T18:52:35.414Z,27.30
2022-08-09T18:55:29.429Z,27.10
2022-08-09T18:58:34.893Z,26.90
2022-08-09T19:01:27.470Z,26.80
2022-08-09T19:04:34.982Z,26.60
2022-08-09T19:07:23.290Z,26.40
2022-08-09T19:10:17.708Z,26.20
2022-08-09T19:13:16.533Z,26.20
2022-08-09T19:16:10.803Z,26.00
2022-08-09T19:19:00.963Z,25.90
2022-08-09T19:22:08.832Z,25.80
2022-08-09T19:25:11.516Z,25.60
2022-08-09T19:28:05.864Z,25.50
2022-08-09T19:30:53.734Z,25.40
2022-08-09T19:33:44.426Z,25.30
2022-08-09T19:36:32.930Z,25.20
2022-08-09T19:39:28.885Z,25.10
2022-08-09T19:42:29.304Z,25.00
2022-08-09T19:45:17.243Z,24.90
2022-08-09T19:48:07.142Z,24.80
2022-08-09T19:51:00.074Z,24.70
2022-08-09T19:53:48.100Z,24.60
2022-08-09T19:56:41.155Z,24.50
2022-08-09T19:59:58.269Z,24.50
2022-08-09T20:04:07.163Z,24.50
2022-08-09T20:05:52.040Z,24.30
2022-08-09T20:08:41.772Z,24.20
2022-08-09T20:11:33.826Z,24.00
2022-08-09T20:14:33.269Z,24.20
2022-08-09T20:17:41.657Z,24.10
2022-08-09T20:20:37.675Z,24.00
2022-08-09T20:23:38.892Z,23.90
2022-08-09T20:26:29.149Z,23.80
2022-08-09T20:29:19.000Z,23.70
2022-08-09T20:32:30.442Z,23.60
2022-08-09T20:35:17.185Z,23.50
2022-08-09T20:38:22.383Z,23.50
2022-08-09T20:41:13.377Z,23.40
2022-08-09T20:44:03.663Z,23.30
2022-08-09T20:46:51.536Z,23.30
2022-08-09T20:49:40.341Z,23.20
2022-08-09T20:52:29.558Z,23.10
2022-08-09T20:55:17.414Z,23.10
2022-08-09T20:58:19.990Z,23.00
2022-08-09T21:01:32.777Z,23.00
2022-08-09T21:05:54.868Z,23.00
2022-08-09T21:07:30.037Z,22.80
2022-08-09T21:10:26.555Z,22.70
2022-08-09T21:13:18.459Z,22.70
2022-08-09T21:16:19.419Z,22.70
2022-08-09T21:20:17.335Z,22.60
2022-08-09T21:22:35.658Z,22.50
2022-08-09T21:25:44.193Z,22.40
2022-08-09T21:28:55.956Z,22.40
2022-08-09T21:31:48.592Z,22.20
2022-08-09T21:34:39.180Z,22.20
2022-08-09T21:37:47.166Z,22.20
2022-08-09T21:40:44.384Z,22.10
2022-08-09T21:43:56.691Z,22.10
2022-08-09T21:46:46.125Z,22.00
2022-08-09T21:49:39.363Z,22.00
2022-08-09T21:52:31.541Z,21.90
2022-08-09T21:55:19.592Z,21.90
2022-08-09T21:58:07.412Z,21.80
2022-08-09T22:01:01.740Z,21.90
2022-08-09T22:03:59.250Z,21.70
2022-08-09T22:06:52.535Z,21.70
2022-08-09T22:09:51.194Z,21.60
2022-08-09T22:12:40.858Z,21.50
2022-08-09T22:15:37.728Z,21.70
2022-08-09T22:18:30.827Z,21.40
2022-08-09T22:21:22.214Z,21.40
2022-08-09T22:24:16.904Z,21.30
2022-08-09T22:27:06.936Z,21.20
2022-08-09T22:29:58.112Z,21.20
2022-08-09T22:32:45.953Z,21.20
2022-08-09T22:36:01.247Z,21.10
2022-08-09T22:38:41.646Z,21.10
2022-08-09T22:41:31.876Z,21.00
2022-08-09T22:44:24.209Z,21.00
2022-08-09T22:48:16.876Z,20.90
2022-08-09T22:50:25.813Z,20.80
2022-08-09T22:53:14.155Z,20.70
2022-08-09T22:56:30.841Z,20.70
2022-08-09T22:59:55.636Z,20.60
2022-08-09T23:02:20.070Z,20.60
2022-08-09T23:05:09.067Z,20.50
2022-08-09T23:08:27.729Z,20.40
2022-08-09T23:11:20.960Z,20.40
2022-08-09T23:14:09.656Z,20.40
2022-08-09T23:16:58.337Z,20.20
2022-08-09T23:20:00.693Z,20.20
2022-08-09T23:22:55.259Z,20.20
2022-08-09T23:25:43.092Z,20.10
2022-08-09T23:28:30.890Z,20.10
2022-08-09T23:31:18.733Z,20.10
2022-08-09T23:34:06.634Z,20.00
2022-08-09T23:36:56.174Z,20.00
2022-08-09T23:39:44.154Z,20.00
2022-08-09T23:42:32.139Z,19.90
2022-08-09T23:45:36.467Z,19.90
2022-08-09T23:48:26.174Z,19.90
2022-08-09T23:51:14.017Z,19.90
2022-08-09T23:54:03.644Z,19.90
2022-08-09T23:56:54.715Z,19.80
